Weather History for Pittsburg, KS

Change the Weather History Date:

Friday, November 23, 2012

  Actual Average (KJLN) Record (KJLN)
Temperature  
Mean Temperature 38 °F 45 °F  
Max Temperature 51 °F 55 °F 76 °F (1966)
Min Temperature 25 °F 35 °F 13 °F (1950)
Degree Days  
Heating Degree Days 27 20  
Month to date heating degree days 351  
Since 1 July heating degree days 603  
Cooling Degree Days 0 0  
Month to date cooling degree days 5  
Year to date cooling degree days 1696  
Moisture  
Dew Point 26 °F    
Average Humidity 62    
Maximum Humidity 87    
Minimum Humidity 43    
Precipitation  
Precipitation 0.00 in 0.12 in 0.50 in (2014)
Month to date precipitation 2.94  
Year to date precipitation 42.89  
Sea Level Pressure  
Sea Level Pressure 30.41 in    
Wind  
Wind Speed 7 mph (NNW)    
Max Wind Speed 20 mph    
Max Gust Speed 26 mph    
Visibility 10 miles    
Events      
T = Trace of Precipitation, MM = Missing Value Source: NWS Daily Summary

Daily Weather History Graph

Daily Weather History Graph

Search for Another Location

Airport:

Trip Planner

Search our weather history database for the weather conditions in past years. The results will help you decide how hot, cold, wet, or windy it might be!

Date:

Astronomy

Nov. 23, 2012 Rise Set
Actual Time 7:07 AM CST 5:03 PM CST
Civil Twilight 6:38 AM CST 5:31 PM CST
Nautical Twilight 6:06 AM CST 6:03 PM CST
Astronomical Twilight 5:35 AM CST 6:35 PM CST
Moon 2:14 PM CST (11/23) 2:31 AM CST (11/23)
Length of Visible Light 10h 52m
Length of Day
9h 56m
Waxing Gibbous, 80% of the Moon is Illuminated
Nov 23
Waxing Gibbous
Nov 28
Full
Dec 6
Last Quarter
Dec 13
New
Dec 19
First Quarter

Hourly Weather History & Observations

Time (CST) Temp. Windchill Dew Point Humidity Pressure Visibility Wind Dir Wind Speed Gust Speed Precip Events Conditions
12:15 AM 51.1 °F - 34.9 °F 54% 30.25 in 10.0 mi NNE 6.9 mph - N/A   Clear
12:35 AM 50.9 °F - 35.6 °F 56% 30.26 in 10.0 mi NNE 6.9 mph - N/A   Clear
12:55 AM 50.9 °F - 36.7 °F 58% 30.27 in 10.0 mi North 3.5 mph - N/A   Scattered Clouds
1:15 AM 50.0 °F - 36.9 °F 61% 30.27 in 10.0 mi North 3.5 mph - N/A   Scattered Clouds
1:35 AM 48.2 °F - 36.0 °F 63% 30.28 in 10.0 mi North 3.5 mph - N/A   Clear
1:55 AM 45.7 °F 44.4 °F 35.4 °F 67% 30.29 in 10.0 mi North 3.5 mph - N/A   Clear
2:15 AM 43.5 °F 41.9 °F 35.1 °F 72% 30.30 in 10.0 mi North 3.5 mph - N/A   Clear
2:35 AM 42.8 °F - 35.4 °F 75% 30.30 in 10.0 mi Calm Calm - N/A   Clear
2:55 AM 42.3 °F 40.5 °F 35.4 °F 77% 30.31 in 10.0 mi NNW 3.5 mph - N/A   Clear
3:15 AM 40.8 °F 38.8 °F 35.2 °F 80% 30.32 in 10.0 mi NNW 3.5 mph - N/A   Clear
3:35 AM 40.6 °F 36.7 °F 36.0 °F 83% 30.32 in 10.0 mi NNW 5.8 mph - N/A   Clear
3:55 AM 42.6 °F 38.4 °F 36.1 °F 78% 30.32 in 10.0 mi NNW 6.9 mph - N/A   Clear
4:15 AM 41.7 °F 36.7 °F 35.4 °F 78% 30.33 in 10.0 mi NNW 8.1 mph - N/A   Clear
4:35 AM 41.5 °F 37.8 °F 35.8 °F 80% 30.33 in 10.0 mi NNW 5.8 mph - N/A   Clear
4:55 AM 41.5 °F 37.8 °F 36.0 °F 81% 30.34 in 10.0 mi NNW 5.8 mph - N/A   Clear
5:15 AM 41.0 °F 38.0 °F 35.8 °F 82% 30.34 in 10.0 mi NW 4.6 mph - N/A   Clear
5:35 AM 40.5 °F 38.4 °F 36.1 °F 85% 30.35 in 10.0 mi NW 3.5 mph - N/A   Clear
5:55 AM 39.9 °F 37.8 °F 36.3 °F 87% 30.36 in 10.0 mi WNW 3.5 mph - N/A   Clear
6:15 AM 39.9 °F 35.8 °F 35.1 °F 83% 30.36 in 10.0 mi NW 5.8 mph - N/A   Clear
6:35 AM 39.9 °F 33.4 °F 33.1 °F 77% 30.38 in 10.0 mi NNW 10.4 mph 16.1 mph N/A   Clear
6:55 AM 40.5 °F 34.1 °F 31.8 °F 71% 30.39 in 10.0 mi NNW 10.4 mph - N/A   Clear
7:15 AM 40.5 °F 32.5 °F 31.6 °F 71% 30.40 in 10.0 mi NNW 15.0 mph 20.7 mph N/A   Clear
7:35 AM 40.5 °F 32.8 °F 29.8 °F 66% 30.41 in 10.0 mi NNW 13.8 mph 23.0 mph N/A   Clear
7:55 AM 39.7 °F 30.9 °F 27.9 °F 63% 30.42 in 10.0 mi NNW 17.3 mph 24.2 mph N/A   Clear
8:15 AM 39.0 °F 29.3 °F 25.7 °F 59% 30.44 in 10.0 mi NNW 19.6 mph 26.5 mph N/A   Clear
8:35 AM 38.3 °F 29.0 °F 22.8 °F 54% 30.45 in 10.0 mi North 17.3 mph 23.0 mph N/A   Clear
8:55 AM 37.9 °F 29.6 °F 20.1 °F 49% 30.45 in 10.0 mi NNW 13.8 mph 24.2 mph N/A   Clear
9:15 AM 37.9 °F 29.2 °F 19.8 °F 48% 30.46 in 10.0 mi NNW 15.0 mph 21.9 mph N/A   Clear
9:35 AM 38.3 °F 29.0 °F 20.1 °F 48% 30.47 in 10.0 mi NNW 17.3 mph 21.9 mph N/A   Clear
9:55 AM 38.3 °F 28.4 °F 20.3 °F 48% 30.47 in 10.0 mi NNW 19.6 mph 24.2 mph N/A   Clear
10:15 AM 38.7 °F 30.1 °F 20.1 °F 47% 30.48 in 10.0 mi NNW 15.0 mph 19.6 mph N/A   Clear
10:35 AM 38.7 °F 29.8 °F 20.3 °F 48% 30.48 in 10.0 mi NNW 16.1 mph 20.7 mph N/A   Clear
10:55 AM 39.2 °F 31.6 °F 20.8 °F 48% 30.48 in 10.0 mi NNW 12.7 mph 21.9 mph N/A   Clear
11:15 AM 39.9 °F 32.1 °F 21.4 °F 48% 30.48 in 10.0 mi North 13.8 mph 17.3 mph N/A   Clear
11:35 AM 40.5 °F 34.1 °F 21.0 °F 46% 30.47 in 10.0 mi NNW 10.4 mph 19.6 mph N/A   Clear
11:55 AM 40.5 °F 33.6 °F 21.4 °F 47% 30.47 in 10.0 mi North 11.5 mph 18.4 mph N/A   Clear
12:15 PM 40.5 °F 34.1 °F 21.4 °F 47% 30.46 in 10.0 mi NW 10.4 mph 16.1 mph N/A   Clear
12:35 PM 40.5 °F 33.6 °F 21.2 °F 46% 30.46 in 10.0 mi NW 11.5 mph 17.3 mph N/A   Clear
12:55 PM 40.6 °F 33.4 °F 21.0 °F 46% 30.45 in 10.0 mi NNW 12.7 mph 19.6 mph N/A   Clear
1:15 PM 41.2 °F 35.0 °F 20.8 °F 44% 30.45 in 10.0 mi NW 10.4 mph 17.3 mph N/A   Clear
1:35 PM 41.5 °F 35.4 °F 20.8 °F 44% 30.44 in 10.0 mi NNW 10.4 mph 16.1 mph N/A   Clear
1:55 PM 41.5 °F 35.9 °F 21.2 °F 44% 30.44 in 10.0 mi NW 9.2 mph - N/A   Clear
2:15 PM 41.5 °F 35.0 °F 20.8 °F 44% 30.44 in 10.0 mi NW 11.5 mph 16.1 mph N/A   Clear
2:35 PM 41.7 °F 35.6 °F 21.0 °F 44% 30.44 in 10.0 mi NNW 10.4 mph 16.1 mph N/A   Clear
2:55 PM 41.5 °F 35.0 °F 20.7 °F 43% 30.44 in 10.0 mi NNW 11.5 mph 17.3 mph N/A   Clear
3:15 PM 41.5 °F 35.0 °F 20.8 °F 44% 30.43 in 10.0 mi NNW 11.5 mph - N/A   Clear
3:35 PM 41.4 °F 36.2 °F 21.4 °F 45% 30.43 in 10.0 mi NW 8.1 mph - N/A   Clear
3:55 PM 41.2 °F 34.5 °F 21.4 °F 45% 30.43 in 10.0 mi NNW 11.5 mph - N/A   Clear
4:15 PM 40.8 °F 35.0 °F 21.4 °F 46% 30.44 in 10.0 mi NNW 9.2 mph - N/A   Clear
4:35 PM 40.5 °F 33.6 °F 21.4 °F 47% 30.44 in 10.0 mi NNW 11.5 mph 17.3 mph N/A   Clear
4:55 PM 40.5 °F 34.6 °F 21.7 °F 47% 30.44 in 10.0 mi NNW 9.2 mph - N/A   Clear
5:15 PM 39.0 °F 34.0 °F 21.7 °F 50% 30.44 in 10.0 mi NNW 6.9 mph - N/A   Clear
5:35 PM 37.8 °F 35.3 °F 22.3 °F 54% 30.44 in 10.0 mi NNW 3.5 mph - N/A   Clear
5:55 PM 35.8 °F - 21.7 °F 57% 30.44 in 10.0 mi Calm Calm - N/A   Clear
6:15 PM 35.6 °F 32.8 °F 22.5 °F 59% 30.44 in 10.0 mi NW 3.5 mph - N/A   Clear
6:35 PM 35.6 °F - 23.5 °F 62% 30.44 in 10.0 mi Calm Calm - N/A   Clear
6:55 PM 35.6 °F 32.8 °F 23.7 °F 62% 30.44 in 10.0 mi NW 3.5 mph - N/A   Clear
7:15 PM 33.4 °F 29.1 °F 23.0 °F 66% 30.44 in 10.0 mi NW 4.6 mph - N/A   Clear
7:35 PM 32.9 °F 29.8 °F 22.8 °F 66% 30.44 in 10.0 mi NW 3.5 mph - N/A   Clear
7:55 PM 32.5 °F 28.1 °F 22.3 °F 66% 30.44 in 10.0 mi NW 4.6 mph - N/A   Clear
8:15 PM 32.2 °F 27.7 °F 22.1 °F 66% 30.44 in 10.0 mi NW 4.6 mph - N/A   Clear
8:35 PM 31.8 °F 28.5 °F 21.7 °F 66% 30.44 in 10.0 mi NW 3.5 mph - N/A   Clear
8:55 PM 31.3 °F - 21.2 °F 66% 30.44 in 10.0 mi Calm Calm - N/A   Clear
9:15 PM 31.1 °F - 20.8 °F 66% 30.44 in 10.0 mi Calm Calm - N/A   Clear
9:35 PM 30.7 °F - 22.1 °F 70% 30.44 in 10.0 mi Calm Calm - N/A   Clear
9:55 PM 30.4 °F - 22.5 °F 72% 30.44 in 10.0 mi Calm Calm - N/A   Clear
10:15 PM 28.4 °F - 22.3 °F 78% 30.43 in 10.0 mi Calm Calm - N/A   Clear
10:35 PM 27.9 °F - 22.5 °F 80% 30.43 in 10.0 mi Calm Calm - N/A   Clear
10:55 PM 29.1 °F - 23.2 °F 78% 30.43 in 10.0 mi Calm Calm - N/A   Clear
11:15 PM 27.5 °F - 22.5 °F 81% 30.43 in 10.0 mi Calm Calm - N/A   Clear
11:35 PM 25.9 °F - 21.6 °F 84% 30.43 in 10.0 mi Calm Calm - N/A   Clear
11:55 PM 27.3 °F 23.4 °F 22.1 °F 81% 30.43 in 10.0 mi WNW 3.5 mph - N/A   Clear